Time;durP1;ratioP1;P1;durP2;ratioP2;P2;SDS_P1;SDS_P2;PMS_P1;PMS_P2;Temp;Humidity;BMP_temperature;BMP_pressure;BME280_temperature;BME280_humidity;BME280_pressure;Samples;Min_cycle;Max_cycle;Signal;HPM_P1;HPM_P2
2023/07/16 00:00:28;;;;;;;5.93;2.65;;;18.10;99.90;;;;;;5036598;28;20184;-64
2023/07/16 00:02:54;;;;;;;6.03;2.30;;;18.00;99.90;;;;;;5036181;28;20216;-64
2023/07/16 00:05:19;;;;;;;5.32;2.58;;;18.10;99.90;;;;;;5036566;28;20537;-64
2023/07/16 00:07:45;;;;;;;5.20;2.50;;;17.90;99.90;;;;;;5036684;28;20180;-64
2023/07/16 00:10:11;;;;;;;8.32;2.60;;;18.00;99.90;;;;;;5036409;28;20669;-64
2023/07/16 00:12:38;;;;;;;4.80;2.38;;;18.00;99.90;;;;;;5036604;28;20510;-64
2023/07/16 00:15:04;;;;;;;6.32;2.72;;;17.90;99.90;;;;;;5036182;28;20176;-64
2023/07/16 00:17:29;;;;;;;8.57;3.00;;;17.80;99.90;;;;;;5035998;28;20234;-63
2023/07/16 00:19:55;;;;;;;6.63;2.78;;;17.80;99.90;;;;;;5036250;28;20173;-64
2023/07/16 00:22:20;;;;;;;7.00;2.97;;;17.90;99.90;;;;;;5035811;28;20220;-64
2023/07/16 00:24:46;;;;;;;6.95;2.78;;;17.80;99.90;;;;;;5036197;28;20180;-64
2023/07/16 00:27:11;;;;;;;6.47;2.65;;;17.80;99.90;;;;;;5035824;28;20285;-64
2023/07/16 00:29:37;;;;;;;8.00;2.90;;;17.80;99.90;;;;;;5036004;28;20191;-65
2023/07/16 00:32:03;;;;;;;6.50;3.20;;;17.70;99.90;;;;;;5018212;28;20214;-64
2023/07/16 00:34:28;;;;;;;8.50;3.13;;;17.70;99.90;;;;;;5035879;28;20212;-64
2023/07/16 00:36:54;;;;;;;5.95;2.58;;;17.70;99.90;;;;;;5035984;28;20246;-64
2023/07/16 00:39:20;;;;;;;8.75;3.28;;;17.80;99.90;;;;;;5035766;28;20237;-64
2023/07/16 00:41:45;;;;;;;5.80;2.80;;;17.80;99.90;;;;;;5017901;28;20683;-64
2023/07/16 00:44:11;;;;;;;7.97;3.13;;;17.80;99.90;;;;;;5036022;28;20262;-64
2023/07/16 00:46:37;;;;;;;8.60;3.10;;;17.70;99.90;;;;;;5035716;28;20179;-65
2023/07/16 00:49:03;;;;;;;7.55;3.10;;;17.70;99.90;;;;;;5035640;28;20330;-64
2023/07/16 00:51:30;;;;;;;7.60;3.05;;;17.70;99.90;;;;;;5035982;28;20600;-64
2023/07/16 00:53:56;;;;;;;7.07;2.67;;;17.60;99.90;;;;;;5035550;28;20534;-63
2023/07/16 00:56:22;;;;;;;5.88;2.90;;;17.60;99.90;;;;;;5035524;28;20213;-64
2023/07/16 00:58:47;;;;;;;7.00;2.97;;;17.70;99.90;;;;;;5035217;28;20588;-64
2023/07/16 01:01:13;;;;;;;6.25;3.03;;;17.60;99.90;;;;;;5035335;28;20271;-63
2023/07/16 01:03:39;;;;;;;5.40;2.70;;;17.60;99.90;;;;;;5035539;28;20202;-64
2023/07/16 01:06:05;;;;;;;6.07;2.80;;;17.60;99.90;;;;;;5035302;28;20172;-63
2023/07/16 01:08:37;;;;;;;7.75;3.38;;;17.60;99.90;;;;;;5035211;28;20179;-64
2023/07/16 01:11:03;;;;;;;8.07;3.13;;;17.40;99.90;;;;;;5035372;28;20157;-64
2023/07/16 01:13:29;;;;;;;9.30;3.03;;;17.40;99.90;;;;;;5035220;28;20600;-63
2023/07/16 01:15:55;;;;;;;7.10;3.45;;;17.40;99.90;;;;;;5035190;28;20179;-64
2023/07/16 01:18:21;;;;;;;7.57;2.78;;;17.40;99.90;;;;;;5035026;28;20681;-63
2023/07/16 01:20:46;;;;;;;6.47;3.20;;;17.40;99.90;;;;;;5035053;28;20215;-64
2023/07/16 01:23:47;;;;;;;6.47;2.72;;;17.40;99.90;;;;;;5035014;28;20206;-64
2023/07/16 01:26:38;;;;;;;5.60;2.80;;;17.40;99.90;;;;;;5034288;28;20191;-63
2023/07/16 01:29:34;;;;;;;7.20;2.92;;;17.40;99.90;;;;;;5035192;28;20175;-64
2023/07/16 01:32:03;;;;;;;5.57;2.58;;;17.30;99.90;;;;;;5014465;28;20184;-63
2023/07/16 01:34:33;;;;;;;5.30;2.97;;;17.30;99.90;;;;;;5034747;28;20176;-64
2023/07/16 01:37:01;;;;;;;8.13;2.90;;;17.30;99.90;;;;;;5034361;28;20577;-63
2023/07/16 01:39:27;;;;;;;7.72;3.22;;;17.30;99.90;;;;;;5034778;28;20545;-64
2023/07/16 01:41:52;;;;;;;7.70;2.95;;;17.40;99.90;;;;;;5042590;28;20888;-63
2023/07/16 01:44:18;;;;;;;6.90;3.20;;;17.40;99.90;;;;;;5054535;28;20180;-63
2023/07/16 01:46:44;;;;;;;6.10;3.55;;;17.30;99.90;;;;;;5054478;28;20281;-63
2023/07/16 01:49:09;;;;;;;5.85;3.00;;;17.20;99.90;;;;;;5054266;28;20639;-64
2023/07/16 01:51:35;;;;;;;6.00;3.38;;;17.30;99.90;;;;;;5054182;28;20180;-64
2023/07/16 01:54:01;;;;;;;6.40;3.25;;;17.40;99.90;;;;;;5054400;28;20608;-64
2023/07/16 01:56:26;;;;;;;6.68;3.10;;;17.40;99.90;;;;;;5054341;28;20620;-64
2023/07/16 01:58:52;;;;;;;6.40;3.40;;;17.40;99.90;;;;;;5054287;28;20237;-64
2023/07/16 02:01:18;;;;;;;5.80;3.17;;;17.30;99.90;;;;;;5054049;28;20186;-64
2023/07/16 02:03:43;;;;;;;5.72;2.90;;;17.30;99.90;;;;;;5054116;28;20180;-63
2023/07/16 02:06:09;;;;;;;8.27;3.10;;;17.20;99.90;;;;;;5054133;28;20179;-63
2023/07/16 02:08:34;;;;;;;7.03;3.40;;;17.20;99.90;;;;;;5054107;28;20186;-64
2023/07/16 02:11:00;;;;;;;6.93;3.10;;;17.20;99.90;;;;;;5054044;28;20186;-64
2023/07/16 02:13:27;;;;;;;7.25;3.47;;;17.20;99.90;;;;;;5053727;28;20179;-63
2023/07/16 02:15:52;;;;;;;4.03;3.30;;;17.10;99.90;;;;;;5036199;28;20579;-64
2023/07/16 02:18:18;;;;;;;5.13;2.88;;;17.20;99.90;;;;;;5053891;28;20230;-64
2023/07/16 02:20:44;;;;;;;5.93;3.35;;;17.20;99.90;;;;;;5053866;28;20179;-64
2023/07/16 02:23:10;;;;;;;7.47;3.60;;;17.20;99.90;;;;;;5053948;28;20211;-63
2023/07/16 02:25:35;;;;;;;6.15;3.20;;;17.20;99.90;;;;;;5053811;28;20172;-63
2023/07/16 02:28:02;;;;;;;6.45;3.30;;;17.30;99.90;;;;;;5053771;28;20686;-63
2023/07/16 02:30:27;;;;;;;9.05;3.80;;;17.30;99.90;;;;;;5053712;28;20187;-63
2023/07/16 02:32:53;;;;;;;6.55;3.75;;;17.20;99.90;;;;;;5053694;28;20545;-63
2023/07/16 02:35:19;;;;;;;7.57;4.00;;;17.40;99.90;;;;;;5053644;28;20195;-64
2023/07/16 02:37:45;;;;;;;5.65;3.85;;;17.40;99.90;;;;;;5053337;28;20222;-63
2023/07/16 02:40:10;;;;;;;8.27;3.90;;;17.40;99.90;;;;;;5053292;28;20175;-63
2023/07/16 02:42:36;;;;;;;8.63;4.40;;;17.30;99.90;;;;;;5053576;28;20753;-63
2023/07/16 02:45:02;;;;;;;7.57;4.15;;;17.40;99.90;;;;;;5053490;28;20175;-63
2023/07/16 02:47:27;;;;;;;6.68;4.22;;;17.40;99.90;;;;;;5053199;28;20205;-63
2023/07/16 02:49:53;;;;;;;9.55;4.25;;;17.40;99.90;;;;;;5053685;28;20532;-63
2023/07/16 02:52:19;;;;;;;7.78;4.30;;;17.40;99.90;;;;;;5053419;28;20175;-65
2023/07/16 02:54:44;;;;;;;5.88;3.80;;;17.50;99.90;;;;;;5053406;28;20258;-63
2023/07/16 02:57:10;;;;;;;9.55;4.13;;;17.40;99.90;;;;;;5053341;28;20177;-63
2023/07/16 02:59:35;;;;;;;7.40;3.90;;;17.40;99.90;;;;;;5053362;28;20176;-63
2023/07/16 03:02:01;;;;;;;7.50;4.00;;;17.40;99.90;;;;;;5034574;28;20223;-63
2023/07/16 03:04:27;;;;;;;7.97;4.35;;;17.30;99.90;;;;;;5053319;28;20171;-63
2023/07/16 03:06:52;;;;;;;6.82;3.80;;;17.30;99.90;;;;;;5053285;28;20183;-64
2023/07/16 03:09:18;;;;;;;6.78;3.97;;;17.20;99.90;;;;;;5053386;28;20180;-63
2023/07/16 03:11:44;;;;;;;5.40;3.78;;;17.20;99.90;;;;;;5053303;28;20572;-63
2023/07/16 03:14:09;;;;;;;8.60;4.03;;;17.20;99.90;;;;;;5053135;28;20171;-63
2023/07/16 03:16:35;;;;;;;4.13;3.28;;;17.10;99.90;;;;;;5053220;28;20180;-63
2023/07/16 03:19:01;;;;;;;9.15;3.67;;;17.00;99.90;;;;;;5053138;28;20219;-63
2023/07/16 03:21:26;;;;;;;7.78;4.13;;;17.00;99.90;;;;;;5053091;28;20195;-63
2023/07/16 03:23:52;;;;;;;7.15;4.10;;;17.00;99.90;;;;;;5053169;28;20171;-63
2023/07/16 03:26:18;;;;;;;8.20;4.10;;;16.90;99.90;;;;;;5052793;28;20186;-64
2023/07/16 03:28:43;;;;;;;10.80;4.60;;;16.80;99.90;;;;;;5053052;28;20183;-63
2023/07/16 03:31:09;;;;;;;7.15;4.70;;;16.90;99.90;;;;;;5053107;28;20643;-63
2023/07/16 03:33:35;;;;;;;7.30;4.22;;;16.90;99.90;;;;;;5053045;28;20174;-63
2023/07/16 03:36:00;;;;;;;8.65;4.32;;;16.90;99.90;;;;;;5052745;28;20172;-63
2023/07/16 03:38:26;;;;;;;8.80;4.45;;;16.80;99.90;;;;;;5052757;28;20175;-63
2023/07/16 03:40:51;;;;;;;7.63;4.50;;;16.90;99.90;;;;;;5052976;28;20179;-63
2023/07/16 03:43:17;;;;;;;8.35;4.50;;;16.90;99.90;;;;;;5052926;28;20211;-63
2023/07/16 03:45:43;;;;;;;7.75;4.72;;;16.90;99.90;;;;;;5052704;28;20171;-63
2023/07/16 03:48:09;;;;;;;8.77;5.18;;;17.00;99.90;;;;;;5052599;28;20691;-63
2023/07/16 03:50:35;;;;;;;9.05;5.07;;;16.80;99.90;;;;;;5052888;28;20176;-64
2023/07/16 03:53:03;;;;;;;7.05;4.85;;;16.80;99.90;;;;;;5052900;28;20207;-63
2023/07/16 03:55:29;;;;;;;8.90;5.45;;;16.80;99.90;;;;;;5052772;28;20183;-63
2023/07/16 03:57:54;;;;;;;10.90;4.80;;;16.80;99.90;;;;;;5052854;28;20232;-63
2023/07/16 04:00:20;;;;;;;9.80;5.47;;;16.90;99.90;;;;;;5052483;28;20270;-63
2023/07/16 04:02:46;;;;;;;8.07;4.75;;;16.80;99.90;;;;;;5052743;28;20213;-63
2023/07/16 04:05:11;;;;;;;7.65;5.00;;;16.90;99.90;;;;;;5052799;28;20186;-63
2023/07/16 04:07:37;;;;;;;10.40;5.20;;;16.90;99.90;;;;;;5052754;28;20201;-63
2023/07/16 04:10:03;;;;;;;8.90;5.20;;;16.90;99.90;;;;;;5052471;28;20176;-63
2023/07/16 04:12:29;;;;;;;8.38;5.03;;;16.80;99.90;;;;;;5053037;28;20218;-63
2023/07/16 04:14:57;;;;;;;8.23;5.38;;;16.80;99.90;;;;;;5056290;28;20589;-63
2023/07/16 04:17:23;;;;;;;7.85;5.20;;;16.90;99.90;;;;;;5055999;28;20175;-63
2023/07/16 04:19:49;;;;;;;10.82;4.95;;;16.90;99.90;;;;;;5055942;28;20651;-63
2023/07/16 04:22:15;;;;;;;7.10;5.43;;;16.90;99.90;;;;;;5056264;28;20238;-63
2023/07/16 04:24:40;;;;;;;9.60;5.45;;;16.90;99.90;;;;;;5055883;28;20695;-63
2023/07/16 04:27:06;;;;;;;9.93;5.63;;;16.90;99.90;;;;;;5056069;28;20167;-63
2023/07/16 04:29:32;;;;;;;7.78;5.03;;;16.80;99.90;;;;;;5055984;28;20171;-63
2023/07/16 04:31:57;;;;;;;10.52;5.60;;;16.70;99.90;;;;;;5055931;28;20262;-63
2023/07/16 04:34:23;;;;;;;7.50;4.95;;;16.80;99.90;;;;;;5055939;28;20263;-63
2023/07/16 04:36:48;;;;;;;9.73;5.88;;;16.90;99.90;;;;;;5055805;28;20172;-63
2023/07/16 04:39:14;;;;;;;10.02;6.10;;;16.90;99.90;;;;;;5055553;28;20258;-63
2023/07/16 04:41:40;;;;;;;9.32;5.53;;;16.80;99.90;;;;;;5055650;28;20207;-63
2023/07/16 04:44:05;;;;;;;9.52;5.80;;;16.90;99.90;;;;;;5055590;28;20187;-63
2023/07/16 04:46:31;;;;;;;10.13;5.60;;;16.90;99.90;;;;;;5055722;28;20525;-64
2023/07/16 04:48:57;;;;;;;8.63;5.75;;;16.90;99.90;;;;;;5055525;28;20617;-63
2023/07/16 04:51:23;;;;;;;9.52;5.63;;;17.00;99.90;;;;;;5055602;28;20175;-63
2023/07/16 04:53:48;;;;;;;7.43;5.68;;;17.00;99.90;;;;;;5055497;28;20176;-64
2023/07/16 04:56:15;;;;;;;9.73;5.93;;;17.00;99.90;;;;;;5055823;28;20171;-63
2023/07/16 04:58:42;;;;;;;9.90;6.20;;;17.00;99.90;;;;;;5055370;28;20183;-63
2023/07/16 05:01:11;;;;;;;7.95;6.35;;;17.00;99.90;;;;;;5055129;28;20644;-63
2023/07/16 05:03:37;;;;;;;10.70;5.68;;;17.10;99.90;;;;;;5055374;28;20179;-63
2023/07/16 05:06:03;;;;;;;10.82;5.82;;;17.20;99.90;;;;;;5055303;28;20182;-63
2023/07/16 05:08:28;;;;;;;8.75;5.95;;;17.20;99.90;;;;;;5055278;28;20180;-63
2023/07/16 05:10:54;;;;;;;11.77;6.28;;;17.30;99.90;;;;;;5054957;28;20229;-64
2023/07/16 05:13:20;;;;;;;11.20;6.65;;;17.30;99.90;;;;;;5055099;28;20186;-63
2023/07/16 05:15:46;;;;;;;9.43;5.60;;;17.30;99.90;;;;;;5055061;28;20183;-64
2023/07/16 05:18:12;;;;;;;8.48;5.72;;;17.30;99.90;;;;;;5054760;28;20230;-63
2023/07/16 05:20:38;;;;;;;11.65;6.22;;;17.30;99.90;;;;;;5055053;28;20262;-64
2023/07/16 05:23:03;;;;;;;9.93;5.80;;;17.20;99.90;;;;;;5054927;28;20203;-63
2023/07/16 05:25:29;;;;;;;9.70;5.82;;;17.20;99.90;;;;;;5053728;28;20517;-63
2023/07/16 05:27:55;;;;;;;9.63;5.95;;;17.20;99.90;;;;;;5054856;28;20175;-63
2023/07/16 05:30:21;;;;;;;10.57;6.03;;;17.30;99.90;;;;;;5054778;28;20218;-63
2023/07/16 05:32:46;;;;;;;9.98;6.20;;;17.30;99.90;;;;;;5054663;28;20619;-63
2023/07/16 05:35:12;;;;;;;10.30;6.50;;;17.20;99.90;;;;;;5041373;28;20187;-63
2023/07/16 05:37:38;;;;;;;10.00;6.38;;;17.40;99.90;;;;;;5038986;28;20241;-63
2023/07/16 05:40:04;;;;;;;13.32;6.47;;;17.40;99.90;;;;;;5042351;28;20168;-64
2023/07/16 05:42:30;;;;;;;10.20;7.03;;;17.40;99.90;;;;;;5042010;28;20229;-63
2023/07/16 05:44:56;;;;;;;10.45;7.05;;;17.50;99.90;;;;;;5044566;28;20188;-63
2023/07/16 05:47:21;;;;;;;9.30;6.38;;;17.60;99.90;;;;;;5042654;28;20172;-63
2023/07/16 05:49:47;;;;;;;9.73;6.95;;;17.70;99.90;;;;;;5044775;28;20183;-63
2023/07/16 05:52:13;;;;;;;9.82;6.57;;;17.80;99.90;;;;;;5039575;28;20693;-63
2023/07/16 05:54:39;;;;;;;11.82;6.78;;;17.90;99.90;;;;;;5045151;28;20274;-63
2023/07/16 05:57:05;;;;;;;9.60;6.18;;;17.90;99.90;;;;;;5002106;28;20176;-63
2023/07/16 05:59:34;;;;;;;8.63;6.25;;;18.00;99.90;;;;;;5033938;28;20536;-63
2023/07/16 06:02:00;;;;;;;10.77;6.60;;;18.00;99.90;;;;;;5035225;28;20212;-64
2023/07/16 06:04:25;;;;;;;10.48;6.75;;;17.90;99.90;;;;;;5054044;28;20802;-63
2023/07/16 06:06:51;;;;;;;10.90;6.50;;;18.10;99.90;;;;;;5054074;28;20183;-63
2023/07/16 06:09:17;;;;;;;11.43;6.60;;;18.20;99.90;;;;;;5053958;28;20229;-63
2023/07/16 06:11:43;;;;;;;10.20;6.38;;;18.20;99.90;;;;;;5054163;28;20179;-64
2023/07/16 06:14:08;;;;;;;10.18;6.65;;;18.20;99.90;;;;;;5053851;28;20176;-64
2023/07/16 06:16:34;;;;;;;10.70;6.30;;;18.40;99.90;;;;;;5053777;28;20657;-64
2023/07/16 06:19:00;;;;;;;10.32;6.30;;;18.40;99.90;;;;;;5053884;28;20276;-63
2023/07/16 06:21:25;;;;;;;8.95;6.43;;;18.50;99.90;;;;;;5053582;28;20190;-63
2023/07/16 06:23:52;;;;;;;9.02;6.22;;;18.50;99.90;;;;;;5053349;28;20600;-63
2023/07/16 06:26:18;;;;;;;12.65;6.45;;;18.60;99.90;;;;;;5053386;28;20179;-63
2023/07/16 06:28:43;;;;;;;11.43;6.68;;;18.50;99.90;;;;;;5053685;28;20179;-63
2023/07/16 06:31:09;;;;;;;11.20;7.00;;;18.50;99.90;;;;;;5053354;28;20175;-63
2023/07/16 06:33:34;;;;;;;10.90;6.75;;;18.50;99.90;;;;;;5053426;28;20206;-63
2023/07/16 06:36:00;;;;;;;10.85;6.32;;;18.60;99.90;;;;;;5053162;28;20473;-63
2023/07/16 06:38:26;;;;;;;8.73;6.05;;;18.70;99.90;;;;;;5053161;28;20179;-63
2023/07/16 06:40:52;;;;;;;10.68;6.45;;;18.70;99.90;;;;;;5051798;28;20214;-64
2023/07/16 06:43:18;;;;;;;10.30;6.25;;;18.90;99.90;;;;;;5053407;28;20199;-63
2023/07/16 06:45:44;;;;;;;9.40;6.35;;;18.90;99.90;;;;;;5053364;28;20232;-63
2023/07/16 06:48:09;;;;;;;8.82;5.97;;;19.10;99.90;;;;;;5053057;28;20636;-63
2023/07/16 06:50:35;;;;;;;11.13;6.22;;;19.10;99.90;;;;;;5040872;28;20183;-63
2023/07/16 06:53:01;;;;;;;10.05;6.03;;;19.30;99.90;;;;;;5053224;28;20190;-64
2023/07/16 06:55:27;;;;;;;10.88;6.50;;;19.50;99.90;;;;;;5053077;28;20656;-63
2023/07/16 06:57:52;;;;;;;10.60;6.30;;;19.30;99.90;;;;;;5053383;28;20178;-63
2023/07/16 07:00:18;;;;;;;10.93;6.35;;;19.40;99.90;;;;;;5053039;28;20236;-65
2023/07/16 07:02:43;;;;;;;11.57;5.82;;;19.50;99.90;;;;;;5053061;28;20203;-63
2023/07/16 07:05:09;;;;;;;11.52;6.18;;;19.70;99.90;;;;;;5052980;28;20189;-64
2023/07/16 07:07:35;;;;;;;10.55;6.78;;;19.60;99.90;;;;;;5052960;28;20171;-63
2023/07/16 07:10:01;;;;;;;9.05;5.85;;;19.80;99.90;;;;;;5053089;28;20175;-63
2023/07/16 07:12:27;;;;;;;11.32;6.05;;;19.80;99.90;;;;;;5020815;28;20175;-63
2023/07/16 07:14:52;;;;;;;9.90;6.97;;;20.10;99.90;;;;;;5051732;28;20179;-64
2023/07/16 07:17:18;;;;;;;11.23;6.07;;;19.90;99.90;;;;;;5052734;28;20175;-63
2023/07/16 07:19:44;;;;;;;13.18;6.22;;;20.00;99.90;;;;;;5053007;28;20179;-64
2023/07/16 07:22:10;;;;;;;9.80;5.72;;;20.10;99.90;;;;;;5051748;28;20261;-63
2023/07/16 07:24:35;;;;;;;9.30;6.55;;;20.20;99.90;;;;;;5052997;28;20270;-64
2023/07/16 07:27:01;;;;;;;10.15;6.10;;;20.30;99.90;;;;;;5053152;28;20509;-64
2023/07/16 07:29:26;;;;;;;10.93;6.25;;;20.40;99.90;;;;;;5053126;28;20274;-64
2023/07/16 07:31:52;;;;;;;10.25;6.25;;;20.60;99.90;;;;;;5053163;28;20187;-64
2023/07/16 07:34:19;;;;;;;12.98;6.40;;;20.70;99.90;;;;;;5052764;28;20521;-63
2023/07/16 07:36:44;;;;;;;11.98;6.65;;;20.80;99.90;;;;;;5052751;28;20621;-64
2023/07/16 07:39:10;;;;;;;9.55;5.88;;;20.90;99.90;;;;;;5052949;28;20241;-63
2023/07/16 07:41:36;;;;;;;9.95;5.60;;;20.90;99.90;;;;;;5052972;28;20230;-63
2023/07/16 07:44:01;;;;;;;9.30;5.78;;;21.00;99.90;;;;;;5052983;28;20182;-63
2023/07/16 07:46:27;;;;;;;10.75;5.60;;;20.90;99.90;;;;;;5052976;28;20214;-64
2023/07/16 07:48:53;;;;;;;8.10;5.07;;;20.70;99.90;;;;;;5055198;28;20173;-64
2023/07/16 07:51:20;;;;;;;9.95;5.60;;;20.60;99.90;;;;;;5039019;28;20226;-64
2023/07/16 07:53:46;;;;;;;8.30;5.85;;;20.50;99.90;;;;;;5056317;28;20553;-64
2023/07/16 07:56:11;;;;;;;9.60;5.80;;;20.40;99.90;;;;;;5056507;28;20600;-64
2023/07/16 07:58:37;;;;;;;9.60;5.38;;;20.60;99.90;;;;;;5056484;28;20163;-64
2023/07/16 08:01:07;;;;;;;10.63;5.90;;;20.60;99.90;;;;;;5056247;28;20171;-64
2023/07/16 08:03:33;;;;;;;11.57;5.13;;;20.80;99.90;;;;;;5056452;28;20210;-64
2023/07/16 08:05:59;;;;;;;11.80;6.35;;;20.60;99.90;;;;;;5056409;28;20209;-65
2023/07/16 08:08:25;;;;;;;10.02;5.95;;;20.70;99.90;;;;;;5056054;28;20651;-64
2023/07/16 08:10:50;;;;;;;10.90;5.45;;;20.70;99.90;;;;;;5056386;28;20171;-64
2023/07/16 08:13:16;;;;;;;8.73;5.53;;;20.90;99.90;;;;;;5056283;28;20171;-64
2023/07/16 08:15:41;;;;;;;12.52;5.68;;;20.70;99.90;;;;;;5056143;28;20530;-65
2023/07/16 08:18:07;;;;;;;9.52;5.50;;;20.70;99.90;;;;;;5056059;28;20219;-64
2023/07/16 08:20:33;;;;;;;8.55;6.15;;;20.80;99.90;;;;;;5055785;28;20540;-64
2023/07/16 08:22:58;;;;;;;12.93;5.80;;;20.70;99.90;;;;;;5056092;28;20679;-64
2023/07/16 08:25:25;;;;;;;9.35;5.40;;;20.70;99.90;;;;;;5056060;28;20616;-65
2023/07/16 08:27:51;;;;;;;10.73;5.53;;;20.60;99.90;;;;;;5055964;28;20539;-66
2023/07/16 08:30:16;;;;;;;11.18;5.80;;;20.60;99.90;;;;;;5055505;28;20258;-64
2023/07/16 08:32:42;;;;;;;11.52;5.93;;;20.80;99.90;;;;;;5055703;28;20206;-65
2023/07/16 08:35:12;;;;;;;9.25;5.80;;;21.00;99.90;;;;;;5055726;28;20175;-63
2023/07/16 08:37:37;;;;;;;10.80;5.88;;;21.10;99.90;;;;;;5055608;28;20656;-65
2023/07/16 08:40:03;;;;;;;9.45;5.72;;;20.70;99.90;;;;;;5055599;28;20179;-64
2023/07/16 08:42:29;;;;;;;10.35;5.88;;;20.80;99.90;;;;;;5055535;28;20206;-66
2023/07/16 08:44:55;;;;;;;10.55;5.82;;;20.90;99.90;;;;;;5055757;28;20207;-60
2023/07/16 08:47:21;;;;;;;10.15;5.47;;;21.00;99.90;;;;;;5037535;28;20261;-63
2023/07/16 08:49:56;;;;;;;8.73;5.40;;;20.90;99.90;;;;;;5055109;28;20179;-62
2023/07/16 08:52:22;;;;;;;9.27;5.32;;;20.80;99.90;;;;;;5055430;28;20189;-62
2023/07/16 08:54:48;;;;;;;9.35;4.97;;;20.80;99.90;;;;;;5055330;28;20171;-61
2023/07/16 08:57:14;;;;;;;7.97;4.90;;;20.70;99.90;;;;;;5055147;28;20210;-63
2023/07/16 08:59:40;;;;;;;8.70;5.47;;;20.60;99.90;;;;;;5053857;28;20179;-62
2023/07/16 09:02:06;;;;;;;9.45;5.50;;;20.50;99.90;;;;;;5055128;28;20207;-62
2023/07/16 09:04:33;;;;;;;7.93;5.25;;;20.40;99.90;;;;;;5054799;28;20277;-62
2023/07/16 09:06:58;;;;;;;10.50;5.30;;;20.50;99.90;;;;;;5054923;28;20194;-62
2023/07/16 09:09:24;;;;;;;10.80;5.50;;;20.50;99.90;;;;;;5055257;28;20629;-62
2023/07/16 09:11:50;;;;;;;8.10;4.82;;;20.20;99.90;;;;;;5055230;28;20194;-62
2023/07/16 09:14:20;;;;;;;11.65;5.97;;;20.00;99.90;;;;;;5054857;28;20206;-62
2023/07/16 09:16:53;;;;;;;11.25;5.40;;;19.80;99.90;;;;;;5055052;28;20229;-62
2023/07/16 09:19:19;;;;;;;8.85;5.38;;;19.80;99.90;;;;;;5055141;28;20707;-62
2023/07/16 09:21:51;;;;;;;9.73;5.57;;;19.80;99.90;;;;;;5055020;28;20202;-62
2023/07/16 09:24:20;;;;;;;9.98;5.57;;;19.90;99.90;;;;;;5055073;28;20202;-63
2023/07/16 09:26:54;;;;;;;9.90;5.80;;;20.00;99.90;;;;;;5054867;28;20694;-63
2023/07/16 09:29:20;;;;;;;9.70;5.38;;;20.10;99.90;;;;;;5054715;28;20194;-61
2023/07/16 09:31:57;;;;;;;8.15;5.35;;;20.20;99.90;;;;;;5054712;28;20175;-62
2023/07/16 09:34:26;;;;;;;7.85;4.97;;;20.10;99.90;;;;;;5054765;28;20190;-62
2023/07/16 09:36:52;;;;;;;8.65;5.25;;;19.80;99.90;;;;;;5051580;28;20257;-63
2023/07/16 09:39:19;;;;;;;8.85;5.18;;;19.80;99.90;;;;;;5050512;28;20308;-62
2023/07/16 09:41:49;;;;;;;9.60;5.05;;;19.70;99.90;;;;;;5054247;28;20211;-62
2023/07/16 09:44:15;;;;;;;8.63;5.38;;;19.60;99.90;;;;;;5054217;28;20184;-62
2023/07/16 09:46:42;;;;;;;11.38;5.50;;;19.70;99.90;;;;;;5052297;28;20191;-63
2023/07/16 09:49:08;;;;;;;11.25;5.57;;;19.70;99.90;;;;;;5035863;28;20230;-62
2023/07/16 09:51:36;;;;;;;9.60;5.32;;;19.70;99.90;;;;;;5034037;28;20629;-62
2023/07/16 09:54:02;;;;;;;11.02;6.05;;;19.90;99.90;;;;;;5034354;28;20487;-62
2023/07/16 09:56:40;;;;;;;9.68;5.50;;;20.00;99.90;;;;;;5034179;28;20266;-64
2023/07/16 09:59:10;;;;;;;10.13;5.55;;;20.10;99.90;;;;;;5034288;28;20167;-62
2023/07/16 10:01:40;;;;;;;9.30;5.90;;;20.30;99.90;;;;;;5034117;28;20167;-62
2023/07/16 10:04:12;;;;;;;9.70;5.30;;;20.10;99.90;;;;;;5034271;28;20184;-62
2023/07/16 10:06:55;;;;;;;9.90;4.90;;;20.10;99.90;;;;;;5034178;28;20164;-62
2023/07/16 10:09:39;;;;;;;9.52;4.88;;;20.00;99.90;;;;;;5034208;28;20170;-63
2023/07/16 10:12:10;;;;;;;11.13;4.93;;;20.10;99.90;;;;;;5033770;28;20210;-62
2023/07/16 10:14:40;;;;;;;10.27;5.10;;;20.00;99.90;;;;;;5033482;28;20175;-63
2023/07/16 10:17:06;;;;;;;8.60;5.38;;;19.90;99.90;;;;;;5033729;28;20180;-62
2023/07/16 10:19:55;;;;;;;10.40;5.45;;;19.70;99.90;;;;;;5032643;28;20298;-62
2023/07/16 10:22:41;;;;;;;11.65;6.13;;;19.60;99.90;;;;;;5033677;28;20291;-62
2023/07/16 10:25:19;;;;;;;11.43;6.32;;;19.40;99.90;;;;;;5033383;28;20560;-63
2023/07/16 10:27:46;;;;;;;8.35;5.47;;;19.20;99.90;;;;;;5033356;28;20721;-62
2023/07/16 10:30:12;;;;;;;8.88;5.53;;;19.00;99.90;;;;;;5033789;28;20187;-62
2023/07/16 10:32:38;;;;;;;8.13;5.53;;;19.00;99.90;;;;;;5033179;28;20782;-62
2023/07/16 10:35:06;;;;;;;9.10;5.38;;;19.10;99.90;;;;;;5033416;28;20176;-63
2023/07/16 10:37:32;;;;;;;9.35;5.18;;;19.20;99.90;;;;;;5033585;28;20183;-65
2023/07/16 10:39:59;;;;;;;6.38;4.63;;;19.30;99.90;;;;;;5033614;28;20251;-63
2023/07/16 10:42:26;;;;;;;8.25;4.13;;;19.40;99.90;;;;;;5033544;28;20226;-61
2023/07/16 10:45:00;;;;;;;6.68;4.45;;;19.40;99.90;;;;;;5033148;28;20633;-62
2023/07/16 10:47:53;;;;;;;6.25;4.10;;;19.50;99.90;;;;;;5033599;28;20171;-61
2023/07/16 10:50:19;;;;;;;6.45;4.03;;;19.60;99.90;;;;;;5033646;28;20186;-61
2023/07/16 10:52:45;;;;;;;5.82;3.97;;;19.70;99.90;;;;;;5033402;28;20179;-61
2023/07/16 10:55:10;;;;;;;5.35;3.55;;;19.70;99.90;;;;;;5033147;28;20660;-61
2023/07/16 10:57:36;;;;;;;4.93;3.85;;;19.60;99.90;;;;;;5033420;28;20180;-62
2023/07/16 11:00:03;;;;;;;6.95;3.50;;;19.70;99.90;;;;;;5033393;28;20195;-61
2023/07/16 11:02:29;;;;;;;4.47;3.10;;;19.70;99.90;;;;;;5033186;28;20290;-61
2023/07/16 11:04:57;;;;;;;5.45;3.47;;;19.80;99.90;;;;;;5033391;28;20258;-62
2023/07/16 11:07:23;;;;;;;4.30;3.17;;;20.00;99.90;;;;;;5033285;28;20184;-62
2023/07/16 11:09:53;;;;;;;5.28;3.10;;;20.50;99.90;;;;;;5033294;28;20203;-61
2023/07/16 11:12:22;;;;;;;6.10;3.15;;;20.80;99.90;;;;;;5033230;28;20184;-62
2023/07/16 11:14:51;;;;;;;4.13;2.45;;;21.20;99.90;;;;;;5033149;28;20267;-62
2023/07/16 11:17:16;;;;;;;6.30;3.35;;;21.40;99.90;;;;;;5032980;28;20168;-61
2023/07/16 11:19:47;;;;;;;5.05;2.70;;;21.70;99.90;;;;;;5033252;28;20746;-61
2023/07/16 11:22:14;;;;;;;3.75;2.20;;;22.00;99.90;;;;;;5033093;28;20244;-61
2023/07/16 11:24:44;;;;;;;4.78;2.72;;;22.10;99.90;;;;;;5036905;28;20204;-62
2023/07/16 11:27:18;;;;;;;5.75;2.78;;;22.40;99.90;;;;;;5037240;28;20194;-61
2023/07/16 11:29:50;;;;;;;5.10;2.60;;;22.50;99.90;;;;;;5037189;28;20163;-61
2023/07/16 11:32:42;;;;;;;4.07;2.50;;;22.30;99.90;;;;;;5036968;28;20192;-61
2023/07/16 11:35:08;;;;;;;4.00;2.33;;;22.40;99.90;;;;;;5037162;28;20160;-61
2023/07/16 11:37:35;;;;;;;4.32;2.35;;;22.30;99.90;;;;;;5036881;28;20521;-61
2023/07/16 11:40:05;;;;;;;4.47;2.17;;;22.30;99.90;;;;;;5036849;28;20222;-62
2023/07/16 11:42:41;;;;;;;4.50;2.80;;;22.10;99.90;;;;;;5036401;28;20678;-61
2023/07/16 11:45:22;;;;;;;4.43;2.33;;;22.40;99.90;;;;;;5036783;28;20217;-61
2023/07/16 11:47:49;;;;;;;4.40;1.90;;;22.40;99.90;;;;;;5036764;28;20175;-61
2023/07/16 11:50:15;;;;;;;4.32;2.30;;;22.70;99.90;;;;;;5037002;28;20172;-62
2023/07/16 11:52:41;;;;;;;5.00;2.55;;;22.90;99.90;;;;;;5036683;28;20589;-61
2023/07/16 11:55:08;;;;;;;4.80;2.20;;;22.70;99.90;;;;;;5036661;28;20221;-61
2023/07/16 11:57:34;;;;;;;3.42;2.25;;;22.70;99.90;;;;;;5036614;28;20223;-62
2023/07/16 12:00:00;;;;;;;3.55;2.50;;;22.60;99.90;;;;;;5036542;28;20176;-61
2023/07/16 12:02:27;;;;;;;5.00;2.17;;;22.60;99.90;;;;;;5036314;28;20608;-61
2023/07/16 12:04:53;;;;;;;6.40;2.50;;;22.50;99.90;;;;;;5036505;28;20176;-61
2023/07/16 12:07:45;;;;;;;6.43;2.80;;;22.70;99.90;;;;;;5036174;28;20191;-61
2023/07/16 12:10:10;;;;;;;6.25;2.90;;;22.60;99.90;;;;;;5032056;28;20199;-61
2023/07/16 12:12:37;;;;;;;4.72;2.58;;;22.50;99.90;;;;;;5036253;28;20186;-61
2023/07/16 12:15:04;;;;;;;4.63;2.58;;;22.30;99.90;;;;;;5036183;28;20242;-62
2023/07/16 12:17:30;;;;;;;4.82;2.72;;;22.00;99.90;;;;;;5035675;28;20581;-61
2023/07/16 12:19:55;;;;;;;4.55;3.00;;;22.00;99.90;;;;;;5036226;28;20172;-61
2023/07/16 12:22:22;;;;;;;7.57;3.50;;;22.20;99.90;;;;;;5036093;28;20207;-62
2023/07/16 12:24:47;;;;;;;5.45;2.88;;;22.50;99.90;;;;;;5035883;28;20179;-62
2023/07/16 12:27:15;;;;;;;6.70;3.40;;;22.40;99.90;;;;;;5036148;28;20202;-62
2023/07/16 12:29:40;;;;;;;4.63;3.42;;;22.50;99.90;;;;;;5036023;28;20187;-62
2023/07/16 12:32:06;;;;;;;5.45;3.13;;;22.40;99.90;;;;;;5036035;28;20622;-61
2023/07/16 12:34:32;;;;;;;4.75;2.97;;;22.30;99.90;;;;;;5035811;28;20169;-61
2023/07/16 12:36:58;;;;;;;5.63;3.38;;;22.20;99.90;;;;;;5035958;28;20176;-62
2023/07/16 12:39:23;;;;;;;4.82;2.90;;;22.00;99.90;;;;;;5035630;28;20184;-62
2023/07/16 12:41:49;;;;;;;4.57;2.92;;;22.00;99.90;;;;;;5035771;28;20208;-62
2023/07/16 12:44:15;;;;;;;4.97;3.00;;;22.00;99.90;;;;;;5035858;28;20212;-62